createdAt,value
2023-05-16T00:02:16.110Z,78.07
2023-05-16T00:04:43.711Z,79.62
2023-05-16T00:07:12.620Z,78.94
2023-05-16T00:09:40.122Z,78.89
2023-05-16T00:12:08.644Z,79.06
2023-05-16T00:14:36.475Z,78.68
2023-05-16T00:17:11.506Z,78.16
2023-05-16T00:19:40.150Z,77.55
2023-05-16T00:22:07.682Z,77.88
2023-05-16T00:24:36.481Z,78.00
2023-05-16T00:27:04.598Z,78.32
2023-05-16T00:29:32.398Z,77.57
2023-05-16T00:31:59.980Z,77.83
2023-05-16T00:34:27.676Z,78.27
2023-05-16T00:36:55.203Z,79.13
2023-05-16T00:39:22.823Z,79.69
2023-05-16T00:41:52.034Z,80.36
2023-05-16T00:44:19.661Z,79.50
2023-05-16T00:46:47.439Z,79.27
2023-05-16T00:49:15.280Z,78.01
2023-05-16T00:51:42.791Z,78.24
2023-05-16T00:54:10.332Z,78.52
2023-05-16T00:56:37.825Z,78.58
2023-05-16T00:59:06.709Z,78.62
2023-05-16T01:01:34.764Z,79.09
2023-05-16T01:04:02.358Z,79.47
2023-05-16T01:06:30.084Z,79.89
2023-05-16T01:08:58.825Z,80.18
2023-05-16T01:11:30.501Z,80.68
2023-05-16T01:14:10.948Z,80.64
2023-05-16T01:16:42.056Z,80.61
2023-05-16T01:19:16.268Z,80.30
2023-05-16T01:21:51.193Z,79.93
2023-05-16T01:24:25.204Z,80.19
2023-05-16T01:26:55.324Z,80.26
2023-05-16T01:29:22.915Z,80.42
2023-05-16T01:31:50.608Z,80.29
2023-05-16T01:34:19.446Z,80.39
2023-05-16T01:36:51.944Z,80.04
2023-05-16T01:39:23.347Z,79.75
2023-05-16T01:41:56.760Z,79.46
2023-05-16T01:44:27.137Z,78.66
2023-05-16T01:46:59.247Z,78.51
2023-05-16T01:49:32.381Z,78.85
2023-05-16T01:52:03.006Z,78.71
2023-05-16T01:54:33.078Z,79.59
2023-05-16T01:57:05.423Z,80.24
2023-05-16T01:59:33.204Z,81.21
2023-05-16T02:02:00.775Z,79.89
2023-05-16T02:04:28.507Z,79.64
2023-05-16T02:06:56.054Z,79.73
2023-05-16T02:09:23.604Z,80.05
2023-05-16T02:11:51.098Z,80.15
2023-05-16T02:14:19.971Z,79.44
2023-05-16T02:16:49.133Z,79.30
2023-05-16T02:19:18.311Z,79.01
2023-05-16T02:21:45.899Z,78.80
2023-05-16T02:24:13.403Z,79.20
2023-05-16T02:26:41.037Z,79.15
2023-05-16T02:29:08.672Z,80.59
2023-05-16T02:31:37.591Z,80.95
2023-05-16T02:34:05.237Z,80.19
2023-05-16T02:36:34.358Z,79.46
2023-05-16T02:39:01.906Z,79.56
2023-05-16T02:41:29.406Z,79.56
2023-05-16T02:43:56.897Z,79.50
2023-05-16T02:46:27.350Z,79.36
2023-05-16T02:48:56.238Z,80.50
2023-05-16T02:51:25.678Z,79.67
2023-05-16T02:53:53.995Z,80.10
2023-05-16T02:56:21.734Z,79.83
2023-05-16T02:58:50.753Z,79.87
2023-05-16T03:01:18.984Z,79.72
2023-05-16T03:03:46.735Z,80.27
2023-05-16T03:06:16.224Z,80.50
2023-05-16T03:08:43.767Z,81.15
2023-05-16T03:11:11.338Z,82.03
2023-05-16T03:13:38.864Z,81.88
2023-05-16T03:16:07.308Z,81.17
2023-05-16T03:18:36.675Z,82.10
2023-05-16T03:21:04.232Z,81.46
2023-05-16T03:23:33.057Z,81.44
2023-05-16T03:26:00.941Z,81.06
2023-05-16T03:28:28.468Z,81.06
2023-05-16T03:30:55.980Z,80.97
2023-05-16T03:33:24.621Z,81.09
2023-05-16T03:35:53.032Z,81.09
2023-05-16T03:38:21.535Z,81.38
2023-05-16T03:40:51.225Z,81.22
2023-05-16T03:43:18.745Z,81.10
2023-05-16T03:45:46.302Z,80.80
2023-05-16T03:48:13.876Z,80.87
2023-05-16T03:50:42.023Z,80.79
2023-05-16T03:53:09.867Z,80.37
2023-05-16T03:55:37.367Z,80.54
2023-05-16T03:58:06.282Z,80.90
2023-05-16T04:00:34.535Z,81.25
2023-05-16T04:03:02.081Z,81.08
2023-05-16T04:05:30.379Z,81.15
2023-05-16T04:07:58.068Z,81.75
2023-05-16T04:10:25.795Z,81.78
2023-05-16T04:12:53.330Z,81.70
2023-05-16T04:15:22.216Z,81.58
2023-05-16T04:17:49.751Z,80.65
2023-05-16T04:20:17.511Z,80.86
2023-05-16T04:22:44.996Z,80.48
2023-05-16T04:25:12.469Z,80.59
2023-05-16T04:27:39.966Z,80.81
2023-05-16T04:30:08.634Z,81.48
2023-05-16T04:32:37.586Z,80.74
2023-05-16T04:35:05.557Z,80.85
2023-05-16T04:37:33.078Z,80.16
2023-05-16T04:40:00.576Z,80.26
2023-05-16T04:42:28.100Z,80.38
2023-05-16T04:44:56.259Z,80.13
2023-05-16T04:47:23.771Z,80.22
2023-05-16T04:49:52.591Z,80.31
2023-05-16T04:52:20.201Z,81.09
2023-05-16T04:54:47.691Z,80.18
2023-05-16T04:57:15.181Z,80.09
2023-05-16T04:59:42.799Z,80.60
2023-05-16T05:02:10.386Z,80.10
2023-05-16T05:04:38.061Z,80.51
2023-05-16T05:07:08.138Z,81.34
2023-05-16T05:09:35.764Z,81.05
2023-05-16T05:12:03.311Z,80.68
2023-05-16T05:14:31.074Z,80.18
2023-05-16T05:16:58.579Z,79.84
2023-05-16T05:19:26.255Z,80.09
2023-05-16T05:21:53.800Z,79.41
2023-05-16T05:24:22.593Z,79.46
2023-05-16T05:26:50.116Z,79.73
2023-05-16T05:29:17.592Z,79.83
2023-05-16T05:31:45.207Z,79.44
2023-05-16T05:34:12.736Z,79.71
2023-05-16T05:36:40.404Z,79.41
2023-05-16T05:39:08.557Z,79.92
2023-05-16T05:41:37.673Z,79.33
2023-05-16T05:44:05.746Z,78.63
2023-05-16T05:46:33.825Z,78.84
2023-05-16T05:49:01.478Z,78.62
2023-05-16T05:51:29.019Z,78.64
2023-05-16T05:53:56.830Z,78.71
2023-05-16T05:56:24.778Z,78.77
2023-05-16T05:58:53.623Z,78.52
2023-05-16T06:01:22.303Z,78.05
2023-05-16T06:03:50.015Z,77.86
2023-05-16T06:06:19.114Z,76.67
2023-05-16T06:08:46.623Z,75.58
2023-05-16T06:11:14.110Z,75.69
2023-05-16T06:13:41.635Z,75.93
2023-05-16T06:16:10.489Z,74.95
2023-05-16T06:18:38.051Z,74.52
2023-05-16T06:21:06.284Z,74.01
2023-05-16T06:23:33.919Z,73.67
2023-05-16T06:26:01.523Z,73.20
2023-05-16T06:28:29.031Z,72.35
2023-05-16T06:30:56.672Z,72.47
2023-05-16T06:33:25.690Z,72.61
2023-05-16T06:35:53.351Z,72.86
2023-05-16T06:38:20.872Z,72.71
2023-05-16T06:40:48.340Z,73.14
2023-05-16T06:43:16.109Z,73.05
2023-05-16T06:45:43.643Z,72.98
2023-05-16T06:48:11.260Z,72.77
2023-05-16T06:50:40.220Z,72.79
2023-05-16T06:53:07.745Z,72.58
2023-05-16T06:55:35.358Z,72.70
2023-05-16T06:58:02.960Z,72.60
2023-05-16T07:00:30.542Z,72.98
2023-05-16T07:02:58.149Z,72.76
2023-05-16T07:05:25.834Z,72.51
2023-05-16T07:07:54.823Z,72.68
2023-05-16T07:10:22.791Z,71.99
2023-05-16T07:12:50.358Z,72.45
2023-05-16T07:15:18.084Z,72.26
2023-05-16T07:17:45.918Z,72.24
2023-05-16T07:20:14.794Z,71.66
2023-05-16T07:22:42.340Z,71.03
2023-05-16T07:25:12.854Z,71.18
2023-05-16T07:27:41.642Z,71.38
2023-05-16T07:30:10.857Z,70.84
2023-05-16T07:32:38.452Z,71.37
2023-05-16T07:35:06.601Z,71.53
2023-05-16T07:37:34.309Z,71.98
2023-05-16T07:40:01.963Z,72.46
2023-05-16T07:42:31.854Z,72.58
2023-05-16T07:44:59.426Z,73.21
2023-05-16T07:47:27.088Z,73.27
2023-05-16T07:49:54.754Z,73.41
2023-05-16T07:52:22.329Z,73.09
2023-05-16T07:54:49.845Z,73.21
2023-05-16T07:57:17.783Z,73.18
2023-05-16T07:59:46.926Z,73.21
2023-05-16T08:02:14.739Z,73.70
2023-05-16T08:04:42.290Z,73.74
2023-05-16T08:07:10.277Z,73.84
2023-05-16T08:09:37.819Z,73.96
2023-05-16T08:12:05.847Z,73.67
2023-05-16T08:14:33.453Z,73.45
2023-05-16T08:17:02.314Z,73.56
2023-05-16T08:19:30.416Z,73.20
2023-05-16T08:21:58.002Z,72.91
2023-05-16T08:24:25.798Z,73.40
2023-05-16T08:26:53.368Z,72.72
2023-05-16T08:29:21.033Z,72.69
2023-05-16T08:31:48.961Z,72.09
2023-05-16T08:34:17.887Z,72.34
2023-05-16T08:36:45.443Z,71.79
2023-05-16T08:39:13.013Z,71.53
2023-05-16T08:41:40.690Z,72.02
2023-05-16T08:44:08.346Z,72.18
2023-05-16T08:46:36.683Z,71.68
2023-05-16T08:49:07.868Z,71.87
2023-05-16T08:51:38.187Z,71.98
2023-05-16T08:54:08.139Z,71.45
2023-05-16T08:56:36.237Z,71.17
2023-05-16T08:59:03.900Z,71.75
2023-05-16T09:01:32.242Z,71.58
2023-05-16T09:04:00.472Z,71.82
2023-05-16T09:06:28.104Z,72.07
2023-05-16T09:08:57.311Z,71.09
2023-05-16T09:11:24.940Z,71.74
2023-05-16T09:13:52.510Z,71.24
2023-05-16T09:16:21.275Z,71.32
2023-05-16T09:18:57.124Z,71.24
2023-05-16T09:21:28.656Z,71.69
2023-05-16T09:23:57.994Z,72.03
2023-05-16T09:26:26.238Z,71.93
2023-05-16T09:28:54.924Z,71.25
2023-05-16T09:31:24.945Z,71.56
2023-05-16T09:33:52.696Z,71.67
2023-05-16T09:36:20.457Z,71.57
2023-05-16T09:38:48.020Z,71.48
2023-05-16T09:41:16.896Z,71.29
2023-05-16T09:43:45.274Z,70.95
2023-05-16T09:46:15.075Z,70.50
2023-05-16T09:48:44.025Z,70.82
2023-05-16T09:51:13.049Z,70.37
2023-05-16T09:53:41.870Z,70.30
2023-05-16T09:56:12.210Z,70.53
2023-05-16T09:58:42.585Z,70.31
2023-05-16T10:01:11.265Z,69.57
2023-05-16T10:03:40.990Z,69.27
2023-05-16T10:06:09.223Z,69.10
2023-05-16T10:08:38.127Z,69.11
2023-05-16T10:11:06.812Z,67.32
2023-05-16T10:13:36.314Z,67.37
2023-05-16T10:16:09.039Z,66.69
2023-05-16T10:18:37.151Z,66.99
2023-05-16T10:21:08.326Z,65.99
2023-05-16T10:23:39.306Z,66.52
2023-05-16T10:26:07.279Z,65.55
2023-05-16T10:28:36.791Z,65.20
2023-05-16T10:31:06.967Z,65.37
2023-05-16T10:33:35.026Z,64.96
2023-05-16T10:36:03.742Z,64.81
2023-05-16T10:38:31.582Z,65.09
2023-05-16T10:40:59.487Z,65.15
2023-05-16T10:43:27.832Z,65.31
2023-05-16T10:45:56.308Z,64.93
2023-05-16T10:48:31.991Z,65.10
2023-05-16T10:50:59.581Z,65.04
2023-05-16T10:53:32.245Z,65.12
2023-05-16T10:56:08.951Z,64.76
2023-05-16T10:58:48.637Z,64.50
2023-05-16T11:01:20.766Z,65.45
2023-05-16T11:04:10.102Z,65.09
2023-05-16T11:06:46.039Z,64.67
2023-05-16T11:09:27.194Z,64.36
2023-05-16T11:11:59.902Z,64.26
2023-05-16T11:14:29.739Z,63.76
2023-05-16T11:17:02.371Z,64.12
2023-05-16T11:19:33.431Z,64.90
2023-05-16T11:22:15.088Z,64.32
2023-05-16T11:24:51.485Z,64.12
2023-05-16T11:27:23.936Z,64.36
2023-05-16T11:29:52.362Z,64.71
2023-05-16T11:32:21.782Z,65.73
2023-05-16T11:34:51.850Z,66.86
2023-05-16T11:37:20.994Z,67.29
2023-05-16T11:39:48.763Z,67.61
2023-05-16T11:42:16.514Z,67.39
2023-05-16T11:44:44.111Z,67.92
2023-05-16T11:47:12.426Z,68.19
2023-05-16T11:49:41.403Z,67.95
2023-05-16T11:52:10.743Z,67.48
2023-05-16T11:54:38.694Z,67.91
2023-05-16T11:57:06.794Z,67.07
2023-05-16T11:59:34.482Z,66.89
2023-05-16T12:02:05.534Z,66.35
2023-05-16T12:04:33.208Z,66.14
2023-05-16T12:07:02.449Z,65.86
2023-05-16T12:09:31.408Z,65.85
2023-05-16T12:11:58.963Z,65.08
2023-05-16T12:14:27.043Z,64.29
2023-05-16T12:16:54.928Z,64.28
2023-05-16T12:19:23.135Z,65.20
2023-05-16T12:21:54.233Z,65.58
2023-05-16T12:24:22.141Z,65.60
2023-05-16T12:26:54.469Z,65.62
2023-05-16T12:29:25.162Z,65.60
2023-05-16T12:31:54.297Z,65.96
2023-05-16T12:34:23.217Z,65.94
2023-05-16T12:36:54.447Z,66.39
2023-05-16T12:39:22.916Z,67.18
2023-05-16T12:41:51.783Z,67.02
2023-05-16T12:44:20.429Z,67.51
2023-05-16T12:46:49.646Z,67.41
2023-05-16T12:49:17.355Z,68.05
2023-05-16T12:51:50.274Z,67.20
2023-05-16T12:54:18.314Z,67.26
2023-05-16T12:56:46.038Z,66.95
2023-05-16T12:59:15.097Z,66.78
2023-05-16T13:01:44.369Z,66.58
2023-05-16T13:04:16.643Z,66.89
2023-05-16T13:06:56.497Z,66.72
2023-05-16T13:09:28.919Z,66.20
2023-05-16T13:11:58.752Z,66.32
2023-05-16T13:14:27.898Z,66.82
2023-05-16T13:16:55.418Z,67.11
2023-05-16T13:19:24.183Z,67.95
2023-05-16T13:21:51.903Z,67.96
2023-05-16T13:24:19.452Z,68.59
2023-05-16T13:26:47.018Z,68.52
2023-05-16T13:29:14.910Z,68.60
2023-05-16T13:31:44.796Z,69.81
2023-05-16T13:34:12.370Z,70.67
2023-05-16T13:36:53.085Z,70.98
2023-05-16T13:39:21.930Z,70.44
2023-05-16T13:41:49.496Z,70.37
2023-05-16T13:44:17.356Z,69.75
2023-05-16T13:46:46.321Z,70.98
2023-05-16T13:49:13.852Z,70.55
2023-05-16T13:51:41.390Z,70.66
2023-05-16T13:54:10.156Z,70.62
2023-05-16T13:56:38.207Z,72.13
2023-05-16T13:59:07.144Z,72.16
2023-05-16T14:01:36.491Z,72.32
2023-05-16T14:04:06.192Z,73.58
2023-05-16T14:06:34.061Z,74.07
2023-05-16T14:09:03.679Z,74.30
2023-05-16T14:11:31.640Z,73.79
2023-05-16T14:13:59.563Z,74.56
2023-05-16T14:16:27.502Z,73.77
2023-05-16T14:18:55.402Z,73.09
2023-05-16T14:21:24.361Z,72.24
2023-05-16T14:23:51.907Z,72.13
2023-05-16T14:26:22.560Z,72.42
2023-05-16T14:28:51.003Z,72.36
2023-05-16T14:31:18.743Z,72.71
2023-05-16T14:33:46.323Z,73.11
2023-05-16T14:36:14.323Z,72.77
2023-05-16T14:38:43.184Z,73.09
2023-05-16T14:41:10.850Z,73.42
2023-05-16T14:43:39.149Z,74.47
2023-05-16T14:46:06.770Z,75.10
2023-05-16T14:48:34.592Z,75.24
2023-05-16T14:51:02.128Z,75.16
2023-05-16T14:53:29.709Z,76.17
2023-05-16T14:55:58.535Z,75.61
2023-05-16T14:58:26.992Z,74.53
2023-05-16T15:00:54.518Z,74.69
2023-05-16T15:03:22.104Z,73.49
2023-05-16T15:05:49.695Z,73.85
2023-05-16T15:08:17.237Z,73.96
2023-05-16T15:10:44.763Z,74.07
2023-05-16T15:13:13.690Z,73.66
2023-05-16T15:15:42.141Z,73.89
2023-05-16T15:18:11.163Z,74.21
2023-05-16T15:20:38.908Z,73.98
2023-05-16T15:23:06.535Z,73.17
2023-05-16T15:25:34.518Z,73.01
2023-05-16T15:28:02.157Z,72.70
2023-05-16T15:30:34.044Z,73.13
2023-05-16T15:33:01.610Z,72.44
2023-05-16T15:35:29.546Z,72.07
2023-05-16T15:37:59.665Z,71.39
2023-05-16T15:40:27.592Z,71.32
2023-05-16T15:42:55.361Z,71.47
2023-05-16T15:45:22.940Z,71.87
2023-05-16T15:47:51.911Z,71.42
2023-05-16T15:50:19.535Z,71.13
2023-05-16T15:52:47.271Z,71.76
2023-05-16T15:55:15.207Z,71.24
2023-05-16T15:57:43.963Z,71.42
2023-05-16T16:00:12.889Z,71.07
2023-05-16T16:02:44.758Z,71.39
2023-05-16T16:05:14.355Z,71.04
2023-05-16T16:07:42.116Z,71.13
2023-05-16T16:10:10.706Z,70.79
2023-05-16T16:12:38.267Z,71.03
2023-05-16T16:15:07.397Z,70.82
2023-05-16T16:17:35.288Z,71.14
2023-05-16T16:20:02.936Z,70.63
2023-05-16T16:22:31.793Z,71.04
2023-05-16T16:25:00.458Z,70.78
2023-05-16T16:27:28.093Z,70.65
2023-05-16T16:29:55.663Z,70.81
2023-05-16T16:32:23.373Z,70.73
2023-05-16T16:34:51.019Z,70.84
2023-05-16T16:37:18.561Z,70.59
2023-05-16T16:39:47.537Z,70.92
2023-05-16T16:42:15.090Z,70.63
2023-05-16T16:44:42.651Z,70.06
2023-05-16T16:47:10.421Z,70.02
2023-05-16T16:49:37.996Z,69.60
2023-05-16T16:52:06.036Z,68.93
2023-05-16T16:54:33.577Z,68.68
2023-05-16T16:57:02.412Z,68.24
2023-05-16T16:59:30.113Z,68.35
2023-05-16T17:01:57.733Z,67.70
2023-05-16T17:04:25.283Z,68.05
2023-05-16T17:06:52.845Z,67.61
2023-05-16T17:09:21.343Z,67.45
2023-05-16T17:11:48.966Z,68.04
2023-05-16T17:14:17.838Z,67.13
2023-05-16T17:16:45.560Z,67.40
2023-05-16T17:19:13.189Z,66.89
2023-05-16T17:21:41.419Z,66.82
2023-05-16T17:24:09.634Z,66.35
2023-05-16T17:26:37.316Z,66.25
2023-05-16T17:29:05.940Z,66.17
2023-05-16T17:31:35.018Z,66.04
2023-05-16T17:34:02.563Z,65.37
2023-05-16T17:36:30.934Z,65.29
2023-05-16T17:38:58.670Z,64.84
2023-05-16T17:41:26.261Z,64.76
2023-05-16T17:43:53.871Z,65.38
2023-05-16T17:46:21.447Z,65.40
2023-05-16T17:48:50.398Z,65.19
2023-05-16T17:51:17.953Z,65.17
2023-05-16T17:53:45.517Z,64.89
2023-05-16T17:56:14.023Z,64.98
2023-05-16T17:58:41.795Z,65.61
2023-05-16T18:01:10.235Z,65.64
2023-05-16T18:03:38.531Z,65.33
2023-05-16T18:06:07.993Z,65.89
2023-05-16T18:08:35.796Z,66.17
2023-05-16T18:11:03.344Z,66.30
2023-05-16T18:13:31.145Z,66.34
2023-05-16T18:15:58.741Z,66.10
2023-05-16T18:18:27.227Z,66.63
2023-05-16T18:20:54.977Z,66.29
2023-05-16T18:23:24.751Z,66.81
2023-05-16T18:25:52.681Z,66.86
2023-05-16T18:28:21.454Z,66.76
2023-05-16T18:30:48.989Z,67.13
2023-05-16T18:33:16.795Z,67.14
2023-05-16T18:35:44.369Z,67.22
2023-05-16T18:38:20.323Z,67.39
2023-05-16T18:40:57.670Z,67.08
2023-05-16T18:43:25.219Z,67.43
2023-05-16T18:45:52.729Z,67.32
2023-05-16T18:48:20.624Z,67.38
2023-05-16T18:50:48.241Z,67.36
2023-05-16T18:53:15.787Z,67.69
2023-05-16T18:55:43.376Z,67.90
2023-05-16T18:58:12.440Z,68.14
2023-05-16T19:00:40.023Z,68.13
2023-05-16T19:03:09.876Z,68.31
2023-05-16T19:05:37.755Z,68.17
2023-05-16T19:08:07.799Z,68.46
2023-05-16T19:10:38.384Z,68.25
2023-05-16T19:13:08.057Z,68.21
2023-05-16T19:15:37.686Z,68.09
2023-05-16T19:18:06.431Z,69.01
2023-05-16T19:20:34.971Z,69.31
2023-05-16T19:23:03.254Z,69.25
2023-05-16T19:25:31.320Z,70.19
2023-05-16T19:27:59.109Z,71.07
2023-05-16T19:30:26.835Z,71.01
2023-05-16T19:32:56.043Z,70.42
2023-05-16T19:35:23.655Z,70.10
2023-05-16T19:37:51.224Z,71.01
2023-05-16T19:40:18.940Z,71.92
2023-05-16T19:42:47.578Z,73.33
2023-05-16T19:45:15.104Z,72.98
2023-05-16T19:47:42.973Z,73.26
2023-05-16T19:50:12.160Z,73.48
2023-05-16T19:52:40.865Z,73.40
2023-05-16T19:55:10.453Z,73.48
2023-05-16T19:57:38.064Z,74.22
2023-05-16T20:00:06.756Z,73.35
2023-05-16T20:02:40.426Z,73.54
2023-05-16T20:05:08.979Z,73.38
2023-05-16T20:07:39.572Z,73.12
2023-05-16T20:10:09.014Z,72.72
2023-05-16T20:12:36.607Z,72.67
2023-05-16T20:15:08.197Z,72.43
2023-05-16T20:17:35.812Z,71.92
2023-05-16T20:20:03.628Z,71.88
2023-05-16T20:22:31.214Z,72.19
2023-05-16T20:25:00.305Z,71.96
2023-05-16T20:27:29.224Z,71.91
2023-05-16T20:29:58.662Z,72.34
2023-05-16T20:32:26.192Z,71.02
2023-05-16T20:34:53.701Z,69.77
2023-05-16T20:37:23.317Z,69.19
2023-05-16T20:39:51.411Z,69.24
2023-05-16T20:42:20.352Z,69.09
2023-05-16T20:44:48.063Z,69.18
2023-05-16T20:47:16.771Z,71.47
2023-05-16T20:49:44.535Z,70.83
2023-05-16T20:52:12.145Z,69.97
2023-05-16T20:54:41.106Z,69.92
2023-05-16T20:57:08.877Z,70.20
2023-05-16T20:59:38.324Z,67.90
2023-05-16T21:02:09.650Z,66.31
2023-05-16T21:04:37.393Z,66.95
2023-05-16T21:07:07.494Z,67.17
2023-05-16T21:09:37.703Z,67.06
2023-05-16T21:12:06.034Z,66.11
2023-05-16T21:14:33.591Z,66.64
2023-05-16T21:17:02.522Z,66.49
2023-05-16T21:19:33.971Z,67.19
2023-05-16T21:22:03.884Z,67.52
2023-05-16T21:24:35.029Z,66.21
2023-05-16T21:27:03.144Z,67.30
2023-05-16T21:29:30.703Z,67.02
2023-05-16T21:31:58.619Z,68.59
2023-05-16T21:34:27.531Z,67.73
2023-05-16T21:36:55.083Z,66.58
2023-05-16T21:39:22.667Z,66.03
2023-05-16T21:41:50.214Z,65.89
2023-05-16T21:44:18.543Z,65.72
2023-05-16T21:46:46.124Z,64.87
2023-05-16T21:49:13.687Z,64.33
2023-05-16T21:51:42.537Z,64.65
2023-05-16T21:54:10.091Z,64.11
2023-05-16T21:56:37.694Z,64.38
2023-05-16T21:59:05.228Z,63.97
2023-05-16T22:01:32.775Z,64.06
2023-05-16T22:04:00.436Z,64.01
2023-05-16T22:06:28.051Z,64.50
2023-05-16T22:08:56.923Z,64.41
2023-05-16T22:11:24.491Z,64.24
2023-05-16T22:13:52.081Z,63.92
2023-05-16T22:16:19.624Z,64.13
2023-05-16T22:18:47.390Z,64.18
2023-05-16T22:21:16.200Z,63.83
2023-05-16T22:23:43.826Z,63.87
2023-05-16T22:26:12.786Z,63.96
2023-05-16T22:28:40.326Z,64.49
2023-05-16T22:31:07.871Z,64.63
2023-05-16T22:33:35.717Z,64.61
2023-05-16T22:36:03.990Z,64.73
2023-05-16T22:38:31.785Z,64.46
2023-05-16T22:40:59.446Z,64.45
2023-05-16T22:43:28.327Z,64.33
2023-05-16T22:45:56.063Z,64.29
2023-05-16T22:48:23.727Z,64.64
2023-05-16T22:50:51.259Z,64.59
2023-05-16T22:53:18.784Z,64.77
2023-05-16T22:55:46.306Z,64.92
2023-05-16T22:58:13.862Z,64.57
2023-05-16T23:00:42.711Z,64.90
2023-05-16T23:03:10.502Z,64.78
2023-05-16T23:05:38.140Z,64.78
2023-05-16T23:08:06.184Z,64.75
2023-05-16T23:10:33.702Z,64.81
2023-05-16T23:13:01.464Z,64.61
2023-05-16T23:15:29.150Z,64.63
2023-05-16T23:17:58.314Z,64.47
2023-05-16T23:20:25.962Z,64.51
2023-05-16T23:22:53.512Z,64.25
2023-05-16T23:25:21.182Z,64.33
2023-05-16T23:27:48.687Z,64.16
2023-05-16T23:30:16.506Z,63.79
2023-05-16T23:32:44.095Z,64.08
2023-05-16T23:35:12.985Z,64.02
2023-05-16T23:37:40.496Z,64.38
2023-05-16T23:40:10.098Z,64.66
2023-05-16T23:42:37.672Z,64.83
2023-05-16T23:45:06.207Z,65.16
2023-05-16T23:47:33.774Z,64.85
2023-05-16T23:50:01.626Z,65.03
2023-05-16T23:52:30.593Z,64.66
2023-05-16T23:54:58.143Z,64.35
2023-05-16T23:57:25.682Z,64.59
2023-05-16T23:59:53.234Z,64.58
